createdAt,value
2019-01-27T00:00:30.682Z,6.60
2019-01-27T00:02:35.052Z,6.60
2019-01-27T00:04:39.787Z,6.60
2019-01-27T00:06:44.191Z,6.60
2019-01-27T00:08:48.663Z,6.60
2019-01-27T00:10:53.083Z,6.50
2019-01-27T00:12:57.598Z,6.50
2019-01-27T00:15:02.029Z,6.60
2019-01-27T00:17:06.434Z,6.50
2019-01-27T00:19:10.790Z,6.60
2019-01-27T00:21:15.262Z,6.60
2019-01-27T00:23:19.632Z,6.60
2019-01-27T00:25:24.147Z,6.60
2019-01-27T00:27:28.694Z,6.60
2019-01-27T00:29:33.066Z,6.60
2019-01-27T00:31:37.541Z,6.60
2019-01-27T00:33:41.918Z,6.60
2019-01-27T00:35:46.333Z,6.60
2019-01-27T00:37:50.746Z,6.60
2019-01-27T00:39:55.179Z,6.60
2019-01-27T00:41:59.686Z,6.60
2019-01-27T00:44:04.162Z,6.60
2019-01-27T00:46:08.631Z,6.70
2019-01-27T00:48:13.010Z,6.60
2019-01-27T00:50:17.533Z,6.70
2019-01-27T00:52:21.939Z,6.70
2019-01-27T00:54:26.398Z,6.70
2019-01-27T00:56:31.570Z,6.70
2019-01-27T00:58:36.014Z,6.70
2019-01-27T01:00:40.425Z,6.70
2019-01-27T01:02:44.836Z,6.70
2019-01-27T01:04:49.324Z,6.80
2019-01-27T01:06:53.678Z,6.80
2019-01-27T01:08:58.017Z,6.80
2019-01-27T01:11:02.494Z,6.80
2019-01-27T01:13:07.157Z,6.80
2019-01-27T01:15:11.787Z,6.80
2019-01-27T01:17:16.199Z,6.80
2019-01-27T01:19:20.584Z,6.90
2019-01-27T01:21:25.031Z,6.90
2019-01-27T01:23:29.494Z,6.90
2019-01-27T01:25:33.891Z,6.90
2019-01-27T01:27:38.373Z,6.90
2019-01-27T01:29:42.750Z,6.90
2019-01-27T01:31:47.109Z,7.00
2019-01-27T01:33:51.458Z,7.00
2019-01-27T01:35:55.872Z,7.00
2019-01-27T01:38:00.330Z,7.10
2019-01-27T01:40:05.631Z,7.10
2019-01-27T01:42:10.034Z,7.10
2019-01-27T01:44:14.375Z,7.10
2019-01-27T01:46:18.793Z,7.10
2019-01-27T01:48:23.228Z,7.10
2019-01-27T01:50:27.634Z,7.10
2019-01-27T01:52:32.049Z,7.10
2019-01-27T01:54:36.417Z,7.10
2019-01-27T01:56:40.802Z,7.10
2019-01-27T01:58:45.135Z,7.10
2019-01-27T02:00:49.523Z,7.10
2019-01-27T02:02:54.018Z,7.10
2019-01-27T02:04:58.411Z,7.00
2019-01-27T02:07:02.786Z,7.00
2019-01-27T02:09:10.664Z,7.10
2019-01-27T02:11:15.061Z,7.00
2019-01-27T02:13:19.436Z,7.00
2019-01-27T02:16:14.019Z,7.00
2019-01-27T02:18:18.553Z,7.00
2019-01-27T02:20:22.922Z,6.90
2019-01-27T02:22:27.280Z,6.90
2019-01-27T02:24:31.789Z,6.90
2019-01-27T02:26:36.217Z,6.80
2019-01-27T02:28:40.581Z,6.80
2019-01-27T02:30:45.019Z,6.80
2019-01-27T02:32:49.463Z,6.80
2019-01-27T02:34:53.822Z,6.80
2019-01-27T02:36:58.228Z,6.80
2019-01-27T02:39:02.611Z,6.80
2019-01-27T02:41:07.135Z,6.80
2019-01-27T02:43:11.523Z,6.80
2019-01-27T02:45:16.582Z,6.70
2019-01-27T02:47:20.952Z,6.70
2019-01-27T02:49:25.365Z,6.80
2019-01-27T02:51:29.740Z,6.70
2019-01-27T02:53:34.250Z,6.70
2019-01-27T02:55:38.638Z,6.70
2019-01-27T02:57:43.072Z,6.70
2019-01-27T02:59:47.455Z,6.70
2019-01-27T03:01:51.824Z,6.60
2019-01-27T03:03:56.177Z,6.60
2019-01-27T03:07:04.426Z,6.60
2019-01-27T03:09:14.649Z,6.60
2019-01-27T03:11:19.090Z,6.60
2019-01-27T03:13:23.445Z,6.60
2019-01-27T03:15:27.826Z,6.60
2019-01-27T03:17:32.344Z,6.60
2019-01-27T03:19:36.786Z,6.50
2019-01-27T03:21:41.135Z,6.50
2019-01-27T03:23:45.550Z,6.50
2019-01-27T03:25:49.968Z,6.50
2019-01-27T03:27:54.329Z,6.60
2019-01-27T03:29:58.750Z,6.60
2019-01-27T03:32:03.100Z,6.60
2019-01-27T03:34:07.486Z,6.60
2019-01-27T03:36:11.967Z,6.60
2019-01-27T03:38:16.321Z,6.60
2019-01-27T03:40:20.749Z,6.60
2019-01-27T03:42:25.161Z,6.60
2019-01-27T03:44:29.538Z,6.60
2019-01-27T03:46:33.974Z,6.60
2019-01-27T03:48:38.384Z,6.60
2019-01-27T03:50:42.725Z,6.60
2019-01-27T03:52:47.237Z,6.60
2019-01-27T03:54:51.601Z,6.70
2019-01-27T03:56:55.981Z,6.70
2019-01-27T03:59:00.389Z,6.70
2019-01-27T04:01:05.174Z,6.70
2019-01-27T04:03:09.579Z,6.70
2019-01-27T04:05:14.097Z,6.70
2019-01-27T04:07:18.513Z,6.60
2019-01-27T04:09:22.876Z,6.70
2019-01-27T04:11:27.270Z,6.70
2019-01-27T04:13:31.646Z,6.70
2019-01-27T04:15:36.215Z,6.80
2019-01-27T04:17:40.673Z,6.80
2019-01-27T04:19:45.034Z,6.80
2019-01-27T04:21:49.466Z,6.80
2019-01-27T04:23:53.909Z,6.80
2019-01-27T04:25:58.271Z,6.80
2019-01-27T04:28:02.665Z,6.80
2019-01-27T04:30:10.291Z,6.80
2019-01-27T04:32:14.756Z,6.80
2019-01-27T04:34:19.176Z,6.80
2019-01-27T04:36:23.558Z,6.80
2019-01-27T04:38:27.927Z,6.90
2019-01-27T04:40:32.414Z,6.90
2019-01-27T04:42:36.831Z,6.80
2019-01-27T04:44:41.178Z,6.90
2019-01-27T04:46:45.619Z,6.90
2019-01-27T04:48:50.017Z,7.00
2019-01-27T04:50:54.374Z,7.00
2019-01-27T04:52:58.841Z,7.00
2019-01-27T04:55:03.318Z,7.00
2019-01-27T04:57:07.757Z,7.00
2019-01-27T04:59:12.097Z,7.00
2019-01-27T05:01:16.500Z,7.00
2019-01-27T05:03:28.004Z,7.00
2019-01-27T05:05:32.416Z,7.00
2019-01-27T05:07:36.869Z,7.00
2019-01-27T05:09:41.241Z,7.00
2019-01-27T05:11:45.677Z,7.00
2019-01-27T05:13:50.094Z,7.00
2019-01-27T05:15:54.619Z,7.00
2019-01-27T05:17:58.967Z,7.00
2019-01-27T05:20:03.421Z,7.00
2019-01-27T05:22:07.830Z,7.00
2019-01-27T05:24:12.221Z,6.90
2019-01-27T05:26:16.646Z,6.90
2019-01-27T05:28:21.020Z,7.00
2019-01-27T05:30:25.772Z,7.00
2019-01-27T05:32:30.156Z,6.90
2019-01-27T05:34:34.514Z,6.90
2019-01-27T05:36:38.935Z,6.90
2019-01-27T05:38:43.396Z,7.00
2019-01-27T05:40:47.789Z,6.90
2019-01-27T05:42:53.001Z,6.90
2019-01-27T05:44:57.374Z,6.90
2019-01-27T05:47:01.724Z,6.90
2019-01-27T05:49:06.116Z,6.90
2019-01-27T05:51:10.470Z,6.90
2019-01-27T05:53:14.809Z,6.90
2019-01-27T05:55:19.400Z,6.80
2019-01-27T05:57:23.829Z,6.90
2019-01-27T05:59:28.229Z,6.90
2019-01-27T06:01:32.666Z,6.80
2019-01-27T06:03:37.040Z,6.80
2019-01-27T06:05:41.439Z,6.80
2019-01-27T06:07:45.836Z,6.90
2019-01-27T06:09:50.245Z,6.80
2019-01-27T06:11:54.593Z,6.80
2019-01-27T06:13:59.025Z,6.90
2019-01-27T06:16:03.430Z,6.80
2019-01-27T06:18:07.947Z,6.80
2019-01-27T06:20:13.251Z,6.80
2019-01-27T06:22:17.669Z,6.80
2019-01-27T06:24:22.067Z,6.80
2019-01-27T06:26:26.541Z,6.80
2019-01-27T06:28:30.879Z,6.80
2019-01-27T06:30:35.311Z,6.80
2019-01-27T06:32:44.853Z,6.80
2019-01-27T06:34:50.215Z,6.80
2019-01-27T06:36:54.636Z,6.80
2019-01-27T06:38:59.056Z,6.80
2019-01-27T06:41:03.477Z,6.70
2019-01-27T06:43:07.965Z,6.80
2019-01-27T06:45:12.409Z,6.80
2019-01-27T06:47:16.809Z,6.80
2019-01-27T06:49:21.210Z,6.80
2019-01-27T06:51:25.613Z,6.70
2019-01-27T06:53:30.088Z,6.70
2019-01-27T06:55:34.422Z,6.70
2019-01-27T06:57:38.913Z,6.70
2019-01-27T06:59:49.427Z,6.70
2019-01-27T07:02:05.863Z,6.70
2019-01-27T07:04:18.560Z,6.70
2019-01-27T07:06:28.006Z,6.70
2019-01-27T07:08:43.454Z,6.80
2019-01-27T07:10:53.783Z,6.80
2019-01-27T07:13:03.395Z,6.80
2019-01-27T07:15:21.327Z,6.80
2019-01-27T07:17:31.231Z,6.80
2019-01-27T07:20:40.957Z,6.80
2019-01-27T07:24:56.317Z,6.80
2019-01-27T07:27:06.054Z,6.70
2019-01-27T07:29:16.588Z,6.70
2019-01-27T07:31:26.383Z,6.70
2019-01-27T07:33:52.220Z,6.70
2019-01-27T07:36:01.585Z,6.70
2019-01-27T07:38:11.178Z,6.70
2019-01-27T07:40:21.811Z,6.70
2019-01-27T07:42:37.492Z,6.70
2019-01-27T07:44:53.939Z,6.70
2019-01-27T07:47:08.453Z,6.70
2019-01-27T07:49:17.933Z,6.70
2019-01-27T07:52:32.963Z,6.70
2019-01-27T07:54:43.084Z,6.70
2019-01-27T07:58:54.885Z,6.70
2019-01-27T08:01:08.385Z,6.70
2019-01-27T08:03:18.025Z,6.60
2019-01-27T08:05:29.392Z,6.60
2019-01-27T08:07:39.073Z,6.70
2019-01-27T08:09:48.637Z,6.60
2019-01-27T08:11:58.766Z,6.60
2019-01-27T08:14:08.403Z,6.60
2019-01-27T08:16:24.856Z,6.60
2019-01-27T08:18:34.441Z,6.60
2019-01-27T08:20:45.970Z,6.60
2019-01-27T08:22:58.309Z,6.60
2019-01-27T08:25:09.760Z,6.60
2019-01-27T08:27:52.662Z,6.60
2019-01-27T08:30:04.086Z,6.60
2019-01-27T08:32:13.528Z,6.70
2019-01-27T08:34:38.321Z,6.60
2019-01-27T08:36:48.983Z,6.70
2019-01-27T08:40:02.115Z,6.70
2019-01-27T08:42:11.729Z,6.80
2019-01-27T08:44:26.234Z,6.80
2019-01-27T08:46:35.821Z,6.90
2019-01-27T08:48:40.183Z,6.90
2019-01-27T08:50:44.541Z,6.90
2019-01-27T08:52:49.006Z,7.00
2019-01-27T08:54:53.384Z,7.00
2019-01-27T08:56:57.798Z,7.10
2019-01-27T08:59:02.230Z,7.10
2019-01-27T09:02:09.467Z,7.10
2019-01-27T09:04:35.901Z,7.10
2019-01-27T09:06:44.508Z,7.10
2019-01-27T09:09:26.449Z,7.10
2019-01-27T09:11:42.282Z,7.10
2019-01-27T09:14:09.012Z,7.10
2019-01-27T09:16:25.618Z,7.20
2019-01-27T09:18:33.371Z,7.20
2019-01-27T09:20:44.124Z,7.20
2019-01-27T09:22:53.838Z,7.30
2019-01-27T09:25:05.373Z,7.30
2019-01-27T09:27:13.965Z,7.30
2019-01-27T09:29:24.681Z,7.40
2019-01-27T09:31:47.341Z,7.40
2019-01-27T09:33:56.225Z,7.50
2019-01-27T09:37:02.623Z,7.50
2019-01-27T09:39:31.789Z,7.60
2019-01-27T09:41:43.399Z,7.50
2019-01-27T09:43:52.167Z,7.60
2019-01-27T09:46:11.496Z,7.60
2019-01-27T09:48:18.358Z,7.60
2019-01-27T09:50:52.294Z,7.60
2019-01-27T09:53:00.707Z,7.60
2019-01-27T09:55:09.086Z,7.70
2019-01-27T09:57:23.677Z,7.70
2019-01-27T09:59:32.207Z,7.80
2019-01-27T10:01:40.725Z,7.70
2019-01-27T10:04:01.694Z,7.70
2019-01-27T10:06:12.326Z,7.80
2019-01-27T10:08:22.997Z,7.80
2019-01-27T10:10:33.521Z,7.80
2019-01-27T10:12:46.232Z,7.80
2019-01-27T10:14:54.871Z,7.90
2019-01-27T10:19:11.853Z,7.90
2019-01-27T10:21:20.576Z,7.90
2019-01-27T10:23:28.333Z,8.00
2019-01-27T10:25:39.033Z,8.00
2019-01-27T10:27:50.610Z,8.00
2019-01-27T10:30:00.269Z,8.00
2019-01-27T10:32:11.887Z,8.00
2019-01-27T10:34:23.508Z,8.00
2019-01-27T10:36:41.266Z,8.00
2019-01-27T10:39:04.072Z,8.00
2019-01-27T10:41:11.800Z,8.00
2019-01-27T10:43:23.565Z,8.10
2019-01-27T10:45:34.223Z,8.10
2019-01-27T10:47:46.940Z,8.10
2019-01-27T10:50:09.736Z,8.10
2019-01-27T10:52:21.400Z,8.20
2019-01-27T10:54:30.270Z,8.20
2019-01-27T10:58:45.175Z,8.20
2019-01-27T11:00:52.957Z,8.20
2019-01-27T11:03:33.810Z,8.20
2019-01-27T11:05:43.512Z,8.10
2019-01-27T11:07:58.526Z,8.10
2019-01-27T11:11:04.936Z,8.10
2019-01-27T11:13:13.786Z,8.10
2019-01-27T11:15:24.497Z,8.20
2019-01-27T11:17:34.297Z,8.10
2019-01-27T11:19:47.971Z,8.10
2019-01-27T11:21:59.564Z,8.10
2019-01-27T11:24:09.248Z,8.10
2019-01-27T11:26:20.847Z,8.10
2019-01-27T11:28:31.466Z,8.10
2019-01-27T11:30:42.082Z,8.10
2019-01-27T11:32:53.711Z,8.20
2019-01-27T11:35:02.762Z,8.20
2019-01-27T11:37:12.426Z,8.20
2019-01-27T11:39:21.525Z,8.20
2019-01-27T11:41:32.131Z,8.20
2019-01-27T11:43:46.788Z,8.20
2019-01-27T11:45:56.057Z,8.20
2019-01-27T11:48:07.755Z,8.20
2019-01-27T11:50:17.458Z,8.20
2019-01-27T11:52:27.278Z,8.10
2019-01-27T11:54:30.795Z,8.10
2019-01-27T11:56:34.309Z,8.20
2019-01-27T11:58:37.773Z,8.20
2019-01-27T12:00:43.849Z,8.10
2019-01-27T12:02:47.346Z,8.10
2019-01-27T12:04:50.860Z,8.00
2019-01-27T12:06:54.420Z,8.00
2019-01-27T12:08:57.941Z,8.00
2019-01-27T12:11:02.002Z,8.10
2019-01-27T12:13:05.524Z,8.00
2019-01-27T12:15:10.939Z,8.00
2019-01-27T12:17:14.446Z,7.90
2019-01-27T12:19:17.947Z,7.90
2019-01-27T12:21:21.438Z,7.90
2019-01-27T12:23:24.882Z,7.90
2019-01-27T12:25:28.455Z,7.90
2019-01-27T12:27:32.330Z,7.90
2019-01-27T12:29:35.854Z,7.90
2019-01-27T12:31:39.451Z,7.90
2019-01-27T12:33:43.147Z,7.90
2019-01-27T12:35:46.651Z,7.90
2019-01-27T12:37:50.099Z,7.90
2019-01-27T12:39:53.509Z,7.90
2019-01-27T12:41:57.009Z,7.90
2019-01-27T12:44:00.511Z,7.80
2019-01-27T12:46:04.056Z,7.90
2019-01-27T12:48:07.549Z,7.90
2019-01-27T12:50:12.219Z,8.00
2019-01-27T12:52:15.697Z,8.00
2019-01-27T12:54:19.140Z,8.00
2019-01-27T12:56:22.574Z,8.00
2019-01-27T12:58:26.012Z,7.90
2019-01-27T13:00:31.957Z,7.90
2019-01-27T13:02:35.531Z,7.90
2019-01-27T13:04:38.954Z,7.90
2019-01-27T13:06:42.886Z,7.80
2019-01-27T13:08:46.302Z,7.80
2019-01-27T13:10:49.755Z,7.80
2019-01-27T13:12:53.230Z,7.80
2019-01-27T13:14:56.708Z,7.80
2019-01-27T13:17:00.849Z,7.80
2019-01-27T13:19:04.434Z,7.80
2019-01-27T13:21:09.158Z,7.70
2019-01-27T13:23:12.597Z,7.70
2019-01-27T13:25:17.705Z,7.60
2019-01-27T13:27:22.005Z,7.60
2019-01-27T13:29:25.473Z,7.50
2019-01-27T13:31:32.330Z,7.60
2019-01-27T13:33:35.946Z,7.50
2019-01-27T13:35:39.473Z,7.50
2019-01-27T13:37:42.985Z,7.40
2019-01-27T13:39:47.211Z,7.50
2019-01-27T13:41:50.680Z,7.40
2019-01-27T13:43:54.176Z,7.40
2019-01-27T13:45:57.649Z,7.40
2019-01-27T13:48:01.255Z,7.40
2019-01-27T13:50:05.148Z,7.40
2019-01-27T13:52:08.709Z,7.30
2019-01-27T13:54:12.156Z,7.40
2019-01-27T13:56:15.652Z,7.40
2019-01-27T13:58:19.405Z,7.30
2019-01-27T14:00:24.240Z,7.30
2019-01-27T14:02:27.700Z,7.30
2019-01-27T14:04:31.171Z,7.30
2019-01-27T14:06:34.633Z,7.30
2019-01-27T14:08:38.073Z,7.30
2019-01-27T14:10:41.601Z,7.30
2019-01-27T14:12:45.026Z,7.30
2019-01-27T14:14:48.634Z,7.30
2019-01-27T14:16:52.841Z,7.30
2019-01-27T14:18:55.564Z,7.30
2019-01-27T14:20:59.122Z,7.40
2019-01-27T14:23:02.638Z,7.30
2019-01-27T14:25:06.479Z,7.30
2019-01-27T14:27:09.917Z,7.30
2019-01-27T14:29:13.431Z,7.30
2019-01-27T14:31:17.007Z,7.30
2019-01-27T14:33:21.698Z,7.30
2019-01-27T14:35:25.201Z,7.20
2019-01-27T14:37:28.648Z,7.30
2019-01-27T14:39:32.164Z,7.30
2019-01-27T14:41:35.694Z,7.20
2019-01-27T14:43:41.535Z,7.30
2019-01-27T14:45:45.039Z,7.30
2019-01-27T14:47:48.586Z,7.30
2019-01-27T14:49:52.014Z,7.30
2019-01-27T14:51:55.590Z,7.30
2019-01-27T14:53:59.113Z,7.30
2019-01-27T14:56:02.661Z,7.30
2019-01-27T14:58:06.980Z,7.30
2019-01-27T15:00:12.203Z,7.30
2019-01-27T15:02:15.712Z,7.30
2019-01-27T15:04:19.205Z,7.30
2019-01-27T15:06:22.677Z,7.30
2019-01-27T15:08:26.136Z,7.40
2019-01-27T15:10:29.700Z,7.40
2019-01-27T15:12:33.137Z,7.40
2019-01-27T15:14:36.616Z,7.40
2019-01-27T15:16:40.075Z,7.50
2019-01-27T15:18:43.481Z,7.50
2019-01-27T15:20:49.325Z,7.50
2019-01-27T15:22:52.908Z,7.50
2019-01-27T15:24:56.323Z,7.50
2019-01-27T15:26:59.857Z,7.50
2019-01-27T15:29:03.377Z,7.40
2019-01-27T15:31:06.868Z,7.40
2019-01-27T15:33:10.543Z,7.40
2019-01-27T15:35:14.153Z,7.40
2019-01-27T15:37:17.593Z,7.40
2019-01-27T15:39:21.121Z,7.40
2019-01-27T15:41:24.655Z,7.40
2019-01-27T15:43:28.128Z,7.40
2019-01-27T15:45:31.646Z,7.40
2019-01-27T15:47:35.128Z,7.40
2019-01-27T15:49:38.572Z,7.40
2019-01-27T15:51:42.167Z,7.40
2019-01-27T15:53:45.721Z,7.30
2019-01-27T15:55:49.260Z,7.30
2019-01-27T15:57:52.774Z,7.30
2019-01-27T15:59:56.217Z,7.20
2019-01-27T16:01:59.649Z,7.30
2019-01-27T16:04:03.167Z,7.30
2019-01-27T16:06:06.576Z,7.30
2019-01-27T16:08:10.044Z,7.30
2019-01-27T16:10:13.919Z,7.30
2019-01-27T16:12:17.430Z,7.20
2019-01-27T16:14:20.845Z,7.10
2019-01-27T16:16:24.321Z,7.10
2019-01-27T16:18:27.757Z,7.00
2019-01-27T16:20:31.225Z,7.00
2019-01-27T16:22:34.720Z,7.00
2019-01-27T16:24:39.088Z,6.90
2019-01-27T16:26:42.563Z,6.80
2019-01-27T16:28:46.034Z,6.70
2019-01-27T16:31:53.507Z,6.70
2019-01-27T16:34:30.953Z,6.60
2019-01-27T16:36:34.480Z,6.50
2019-01-27T16:38:37.938Z,6.40
2019-01-27T16:40:41.491Z,6.30
2019-01-27T16:42:44.928Z,6.20
2019-01-27T16:44:48.379Z,6.10
2019-01-27T16:46:51.869Z,6.20
2019-01-27T16:48:55.329Z,6.10
2019-01-27T16:50:58.863Z,6.00
2019-01-27T16:53:02.679Z,5.90
2019-01-27T16:55:06.807Z,5.90
2019-01-27T16:57:10.284Z,5.80
2019-01-27T16:59:13.817Z,5.80
2019-01-27T17:01:17.278Z,5.80
2019-01-27T17:03:20.796Z,5.70
2019-01-27T17:05:24.276Z,5.70
2019-01-27T17:07:27.776Z,5.60
2019-01-27T17:09:31.217Z,5.60
2019-01-27T17:11:34.794Z,5.60
2019-01-27T17:13:38.399Z,5.60
2019-01-27T17:15:41.857Z,5.60
2019-01-27T17:17:45.312Z,5.60
2019-01-27T17:19:48.786Z,5.60
2019-01-27T17:21:52.240Z,5.50
2019-01-27T17:23:55.730Z,5.50
2019-01-27T17:25:59.257Z,5.60
2019-01-27T17:28:02.779Z,5.50
2019-01-27T17:30:07.478Z,5.50
2019-01-27T17:32:11.049Z,5.50
2019-01-27T17:34:14.685Z,5.50
2019-01-27T17:36:18.176Z,5.50
2019-01-27T17:38:22.444Z,5.50
2019-01-27T17:40:25.955Z,5.50
2019-01-27T17:42:29.418Z,5.50
2019-01-27T17:44:32.929Z,5.50
2019-01-27T17:46:36.425Z,5.50
2019-01-27T17:48:39.933Z,5.50
2019-01-27T17:50:43.404Z,5.50
2019-01-27T17:52:46.965Z,5.50
2019-01-27T17:54:50.433Z,5.50
2019-01-27T17:56:58.561Z,5.50
2019-01-27T17:59:11.302Z,5.50
2019-01-27T18:01:16.894Z,5.50
2019-01-27T18:03:27.411Z,5.50
2019-01-27T18:05:37.156Z,5.50
2019-01-27T18:07:48.705Z,5.50
2019-01-27T18:10:00.328Z,5.40
2019-01-27T18:12:08.082Z,5.50
2019-01-27T18:14:15.844Z,5.50
2019-01-27T18:16:21.292Z,5.40
2019-01-27T18:18:25.629Z,5.50
2019-01-27T18:20:29.195Z,5.40
2019-01-27T18:22:32.720Z,5.50
2019-01-27T18:24:36.197Z,5.40
2019-01-27T18:26:39.696Z,5.40
2019-01-27T18:28:43.263Z,5.50
2019-01-27T18:30:46.773Z,5.50
2019-01-27T18:32:50.302Z,5.50
2019-01-27T18:34:53.839Z,5.50
2019-01-27T18:36:57.287Z,5.50
2019-01-27T18:39:00.837Z,5.40
2019-01-27T18:41:04.379Z,5.40
2019-01-27T18:43:07.914Z,5.40
2019-01-27T18:45:12.103Z,5.40
2019-01-27T18:47:15.671Z,5.30
2019-01-27T18:49:19.399Z,5.30
2019-01-27T18:51:22.924Z,5.20
2019-01-27T18:53:30.675Z,5.10
2019-01-27T18:55:41.703Z,5.10
2019-01-27T18:57:52.410Z,5.10
2019-01-27T19:00:01.149Z,5.10
2019-01-27T19:02:14.900Z,5.10
2019-01-27T19:04:27.603Z,5.00
2019-01-27T19:06:36.614Z,5.00
2019-01-27T19:09:43.977Z,5.00
2019-01-27T19:11:54.615Z,5.00
2019-01-27T19:14:04.345Z,4.90
2019-01-27T19:16:16.188Z,4.90
2019-01-27T19:18:26.860Z,4.90
2019-01-27T19:20:34.655Z,4.90
2019-01-27T19:23:49.734Z,4.90
2019-01-27T19:25:58.548Z,4.80
2019-01-27T19:28:17.308Z,4.80
2019-01-27T19:30:58.061Z,4.80
2019-01-27T19:34:09.257Z,4.80
2019-01-27T19:36:19.882Z,4.80
2019-01-27T19:38:31.450Z,4.90
2019-01-27T19:40:51.178Z,4.80
2019-01-27T19:43:06.861Z,4.90
2019-01-27T19:45:17.944Z,4.90
2019-01-27T19:47:42.720Z,4.80
2019-01-27T19:49:54.292Z,4.90
2019-01-27T19:52:04.000Z,4.90
2019-01-27T19:55:12.377Z,4.90
2019-01-27T19:57:20.107Z,4.80
2019-01-27T19:59:28.713Z,4.80
2019-01-27T20:01:39.274Z,4.80
2019-01-27T20:03:50.757Z,4.80
2019-01-27T20:06:01.283Z,4.70
2019-01-27T20:08:09.826Z,4.70
2019-01-27T20:11:20.775Z,4.80
2019-01-27T20:13:30.233Z,4.80
2019-01-27T20:15:41.900Z,4.70
2019-01-27T20:18:21.652Z,4.70
2019-01-27T20:21:02.285Z,4.80
2019-01-27T20:23:11.185Z,4.80
2019-01-27T20:25:24.344Z,4.80
2019-01-27T20:27:33.947Z,4.80
2019-01-27T20:31:48.576Z,4.80
2019-01-27T20:33:59.272Z,4.80
2019-01-27T20:36:07.774Z,4.90
2019-01-27T20:40:22.516Z,4.90
2019-01-27T20:42:46.577Z,4.90
2019-01-27T20:45:09.371Z,4.90
2019-01-27T20:47:17.885Z,4.90
2019-01-27T20:49:27.581Z,4.90
2019-01-27T20:51:36.310Z,4.80
2019-01-27T20:53:49.017Z,4.80
2019-01-27T20:56:02.626Z,4.80
2019-01-27T20:58:16.199Z,4.80
2019-01-27T21:00:24.986Z,4.80
2019-01-27T21:02:33.477Z,4.90
2019-01-27T21:04:41.989Z,4.80
2019-01-27T21:06:54.527Z,4.80
2019-01-27T21:11:05.222Z,4.80
2019-01-27T21:13:13.991Z,4.80
2019-01-27T21:15:29.629Z,4.80
2019-01-27T21:17:38.263Z,4.80
2019-01-27T21:19:44.561Z,4.80
2019-01-27T21:21:48.052Z,4.70
2019-01-27T21:23:51.547Z,4.70
2019-01-27T21:25:55.008Z,4.70
2019-01-27T21:27:58.497Z,4.70
2019-01-27T21:30:02.061Z,4.70
2019-01-27T21:32:05.613Z,4.60
2019-01-27T21:34:09.144Z,4.70
2019-01-27T21:36:12.649Z,4.60
2019-01-27T21:38:16.246Z,4.60
2019-01-27T21:40:20.060Z,4.60
2019-01-27T21:42:23.639Z,4.60
2019-01-27T21:44:27.181Z,4.70
2019-01-27T21:46:30.648Z,4.70
2019-01-27T21:48:34.264Z,4.70
2019-01-27T21:50:37.777Z,4.70
2019-01-27T21:52:42.507Z,4.70
2019-01-27T21:54:46.853Z,4.60
2019-01-27T21:56:50.293Z,4.60
2019-01-27T21:58:53.737Z,4.60
2019-01-27T22:00:57.195Z,4.60
2019-01-27T22:03:00.662Z,4.60
2019-01-27T22:05:04.194Z,4.60
2019-01-27T22:07:07.688Z,4.60
2019-01-27T22:09:11.220Z,4.50
2019-01-27T22:11:14.645Z,4.60
2019-01-27T22:13:18.130Z,4.60
2019-01-27T22:15:22.696Z,4.60
2019-01-27T22:17:26.165Z,4.60
2019-01-27T22:19:29.612Z,4.60
2019-01-27T22:21:33.133Z,4.60
2019-01-27T22:23:36.654Z,4.60
2019-01-27T22:25:40.143Z,4.60
2019-01-27T22:27:43.769Z,4.60
2019-01-27T22:29:47.237Z,4.60
2019-01-27T22:31:51.296Z,4.70
2019-01-27T22:33:54.696Z,4.60
2019-01-27T22:35:58.152Z,4.60
2019-01-27T22:38:01.614Z,4.60
2019-01-27T22:40:05.822Z,4.70
2019-01-27T22:42:09.270Z,4.70
2019-01-27T22:44:12.731Z,4.60
2019-01-27T22:46:16.207Z,4.60
2019-01-27T22:48:19.689Z,4.60
2019-01-27T22:50:23.110Z,4.60
2019-01-27T22:52:27.089Z,4.70
2019-01-27T22:54:30.496Z,4.60
2019-01-27T22:56:33.912Z,4.70
2019-01-27T22:58:37.370Z,4.70
2019-01-27T23:00:47.289Z,4.70
2019-01-27T23:02:50.734Z,4.60
2019-01-27T23:04:54.564Z,4.70
2019-01-27T23:06:58.006Z,4.60
2019-01-27T23:09:01.482Z,4.60
2019-01-27T23:11:04.972Z,4.60
2019-01-27T23:13:09.217Z,4.60
2019-01-27T23:15:12.706Z,4.60
2019-01-27T23:17:16.128Z,4.60
2019-01-27T23:19:19.656Z,4.60
2019-01-27T23:21:23.093Z,4.60
2019-01-27T23:23:26.612Z,4.60
2019-01-27T23:25:30.077Z,4.60
2019-01-27T23:27:33.494Z,4.60
2019-01-27T23:29:36.944Z,4.60
2019-01-27T23:31:40.378Z,4.60
2019-01-27T23:33:43.868Z,4.60
2019-01-27T23:35:47.393Z,4.60
2019-01-27T23:37:50.827Z,4.60
2019-01-27T23:39:54.587Z,4.70
2019-01-27T23:41:58.087Z,4.70
2019-01-27T23:44:01.596Z,4.70
2019-01-27T23:46:05.063Z,4.60
2019-01-27T23:48:08.553Z,4.60
2019-01-27T23:50:12.152Z,4.60
2019-01-27T23:52:15.563Z,4.60
2019-01-27T23:54:18.982Z,4.60
2019-01-27T23:56:22.445Z,4.60
2019-01-27T23:58:25.874Z,4.60
